createdAt,value
2022-07-29T00:02:01.311Z,18.88
2022-07-29T00:04:32.785Z,20.47
2022-07-29T00:07:05.051Z,23.08
2022-07-29T00:09:51.033Z,25.23
2022-07-29T00:12:26.681Z,25.92
2022-07-29T00:14:58.879Z,29.73
2022-07-29T00:20:00.937Z,28.20
2022-07-29T00:22:32.396Z,27.58
2022-07-29T00:25:03.910Z,26.10
2022-07-29T00:27:35.662Z,26.45
2022-07-29T00:30:08.385Z,24.83
2022-07-29T00:32:40.425Z,23.75
2022-07-29T00:35:30.136Z,22.87
2022-07-29T00:38:02.130Z,22.10
2022-07-29T00:43:04.563Z,16.35
2022-07-29T00:45:36.488Z,16.77
2022-07-29T00:48:11.187Z,17.30
2022-07-29T00:50:42.924Z,15.85
2022-07-29T00:53:15.923Z,16.70
2022-07-29T00:55:47.779Z,15.35
2022-07-29T00:58:19.391Z,14.73
2022-07-29T01:00:50.967Z,15.63
2022-07-29T01:03:22.348Z,14.07
2022-07-29T01:05:54.413Z,15.10
2022-07-29T01:10:58.022Z,13.90
2022-07-29T01:13:29.766Z,14.88
2022-07-29T01:16:24.187Z,14.43
2022-07-29T01:19:03.453Z,13.60
2022-07-29T01:21:34.649Z,12.70
2022-07-29T01:24:21.878Z,13.33
2022-07-29T01:27:02.446Z,13.73
2022-07-29T01:29:55.851Z,13.60
2022-07-29T01:32:34.510Z,12.93
2022-07-29T01:35:28.629Z,13.23
2022-07-29T01:38:28.270Z,13.32
2022-07-29T01:41:08.124Z,13.27
2022-07-29T01:43:59.031Z,13.70
2022-07-29T01:46:41.285Z,13.35
2022-07-29T01:49:18.236Z,12.95
2022-07-29T01:52:08.188Z,15.07
2022-07-29T01:54:46.832Z,13.63
2022-07-29T01:57:22.360Z,14.07
2022-07-29T01:59:55.564Z,15.50
2022-07-29T02:02:29.041Z,16.63
2022-07-29T02:05:02.547Z,17.55
2022-07-29T02:07:36.327Z,17.85
2022-07-29T02:10:10.147Z,17.95
2022-07-29T02:12:43.550Z,18.27
2022-07-29T02:15:22.996Z,18.98
2022-07-29T02:18:21.017Z,20.08
2022-07-29T02:20:57.423Z,20.23
2022-07-29T02:23:30.412Z,20.63
2022-07-29T02:26:03.071Z,20.63
2022-07-29T02:28:36.026Z,21.45
2022-07-29T02:31:08.172Z,20.60
2022-07-29T02:33:43.144Z,21.02
2022-07-29T02:36:15.295Z,20.25
2022-07-29T02:38:54.291Z,21.60
2022-07-29T02:41:52.791Z,21.40
2022-07-29T02:44:30.051Z,20.95
2022-07-29T02:47:15.862Z,21.55
2022-07-29T02:49:59.156Z,20.63
2022-07-29T02:52:57.770Z,21.08
2022-07-29T02:55:40.590Z,20.55
2022-07-29T02:58:31.867Z,20.10
2022-07-29T03:01:11.928Z,20.98
2022-07-29T03:03:47.868Z,20.63
2022-07-29T03:06:28.227Z,20.42
2022-07-29T03:09:13.950Z,19.55
2022-07-29T03:11:50.512Z,19.88
2022-07-29T03:14:23.217Z,20.05
2022-07-29T03:16:55.663Z,20.15
2022-07-29T03:19:27.597Z,20.48
2022-07-29T03:22:01.652Z,18.95
2022-07-29T03:24:35.766Z,18.65
2022-07-29T03:27:08.125Z,19.40
2022-07-29T03:29:39.552Z,19.08
2022-07-29T03:32:11.249Z,18.63
2022-07-29T03:34:42.592Z,19.00
2022-07-29T03:37:13.953Z,17.90
2022-07-29T03:39:47.223Z,17.52
2022-07-29T03:42:22.618Z,17.45
2022-07-29T03:44:57.147Z,17.73
2022-07-29T03:47:49.586Z,18.60
2022-07-29T03:50:24.065Z,17.52
2022-07-29T03:52:56.033Z,17.25
2022-07-29T03:55:28.653Z,18.05
2022-07-29T03:58:01.294Z,16.05
2022-07-29T04:00:36.013Z,18.05
2022-07-29T04:03:10.624Z,17.55
2022-07-29T04:05:43.150Z,17.38
2022-07-29T04:08:14.634Z,17.02
2022-07-29T04:10:46.153Z,17.40
2022-07-29T04:13:17.879Z,17.60
2022-07-29T04:15:49.418Z,16.45
2022-07-29T04:18:20.852Z,17.35
2022-07-29T04:20:52.614Z,17.20
2022-07-29T04:25:54.932Z,18.00
2022-07-29T04:28:26.345Z,18.73
2022-07-29T04:30:57.989Z,19.60
2022-07-29T04:33:29.476Z,18.75
2022-07-29T04:36:00.907Z,19.58
2022-07-29T04:38:32.555Z,19.17
2022-07-29T04:41:04.138Z,19.20
2022-07-29T04:43:38.931Z,19.90
2022-07-29T04:46:10.624Z,20.92
2022-07-29T04:48:42.208Z,26.73
2022-07-29T04:51:14.416Z,23.88
2022-07-29T04:53:45.839Z,25.80
2022-07-29T04:56:17.249Z,33.42
2022-07-29T04:58:48.986Z,25.13
2022-07-29T05:01:20.772Z,23.63
2022-07-29T05:03:53.974Z,24.10
2022-07-29T05:06:28.437Z,28.52
2022-07-29T05:08:59.719Z,31.80
2022-07-29T05:11:31.091Z,29.27
2022-07-29T05:14:02.558Z,25.35
2022-07-29T05:16:34.917Z,24.67
2022-07-29T05:21:42.224Z,24.13
2022-07-29T05:24:14.340Z,29.30
2022-07-29T05:26:48.062Z,26.98
2022-07-29T05:29:44.127Z,28.98
2022-07-29T05:32:11.096Z,23.70
2022-07-29T05:34:50.722Z,25.15
2022-07-29T05:37:23.383Z,22.08
2022-07-29T05:39:56.705Z,27.20
2022-07-29T05:42:29.566Z,25.63
2022-07-29T05:45:01.217Z,21.38
2022-07-29T05:50:04.428Z,23.55
2022-07-29T05:52:36.624Z,26.20
2022-07-29T05:55:08.476Z,26.23
2022-07-29T06:00:11.694Z,21.88
2022-07-29T06:02:45.895Z,21.35
2022-07-29T06:05:17.868Z,20.13
2022-07-29T06:07:50.213Z,22.20
2022-07-29T06:10:23.994Z,20.05
2022-07-29T06:12:58.918Z,21.35
2022-07-29T06:15:30.649Z,21.17
2022-07-29T06:18:02.475Z,20.48
2022-07-29T06:20:35.008Z,19.42
2022-07-29T06:23:07.053Z,20.10
2022-07-29T06:25:39.153Z,18.13
2022-07-29T06:30:42.729Z,19.42
2022-07-29T06:33:21.173Z,18.35
2022-07-29T06:35:53.541Z,16.75
2022-07-29T06:38:30.780Z,17.88
2022-07-29T06:41:08.358Z,18.65
2022-07-29T06:43:51.854Z,18.95
2022-07-29T06:46:25.228Z,18.30
2022-07-29T06:48:57.129Z,16.80
2022-07-29T06:51:29.919Z,16.77
2022-07-29T06:54:02.654Z,16.67
2022-07-29T06:56:40.469Z,15.85
2022-07-29T06:59:13.714Z,14.55
2022-07-29T07:01:46.226Z,15.82
2022-07-29T07:04:19.035Z,15.63
2022-07-29T07:09:21.470Z,14.50
2022-07-29T07:14:23.871Z,12.60
2022-07-29T07:16:55.339Z,12.55
2022-07-29T07:19:26.841Z,12.23
2022-07-29T07:21:58.475Z,11.63
2022-07-29T07:24:30.130Z,11.23
2022-07-29T07:27:01.985Z,11.63
2022-07-29T07:29:33.377Z,10.73
2022-07-29T07:32:05.623Z,12.02
2022-07-29T07:34:37.389Z,12.02
2022-07-29T07:39:40.280Z,10.73
2022-07-29T07:42:13.972Z,10.85
2022-07-29T07:45:10.989Z,10.00
2022-07-29T07:47:36.745Z,9.83
2022-07-29T07:50:18.230Z,9.40
2022-07-29T07:52:55.897Z,9.38
2022-07-29T07:55:28.058Z,9.60
2022-07-29T07:58:00.126Z,9.45
2022-07-29T08:00:31.914Z,8.77
2022-07-29T08:03:03.241Z,8.55
2022-07-29T08:05:49.862Z,8.07
2022-07-29T08:08:22.046Z,8.20
2022-07-29T08:10:58.114Z,8.98
2022-07-29T08:13:32.520Z,8.20
2022-07-29T08:16:04.227Z,8.38
2022-07-29T08:18:38.769Z,8.35
2022-07-29T08:21:10.667Z,7.88
2022-07-29T08:23:52.789Z,8.07
2022-07-29T08:26:26.126Z,7.47
2022-07-29T08:28:57.741Z,7.97
2022-07-29T08:31:29.254Z,7.50
2022-07-29T08:34:02.249Z,7.25
2022-07-29T08:36:34.395Z,7.03
2022-07-29T08:39:07.332Z,7.20
2022-07-29T08:41:39.120Z,6.78
2022-07-29T08:46:42.058Z,6.80
2022-07-29T08:49:13.662Z,7.40
2022-07-29T08:51:49.175Z,7.30
2022-07-29T08:54:21.986Z,7.28
2022-07-29T08:56:55.141Z,6.70
2022-07-29T08:59:31.281Z,6.18
2022-07-29T09:02:04.388Z,6.47
2022-07-29T09:04:38.823Z,6.40
2022-07-29T09:07:12.000Z,6.55
2022-07-29T09:09:43.766Z,5.72
2022-07-29T09:12:28.633Z,6.35
2022-07-29T09:15:01.013Z,5.97
2022-07-29T09:17:50.513Z,5.75
2022-07-29T09:20:26.824Z,6.10
2022-07-29T09:22:58.323Z,5.22
2022-07-29T09:25:41.736Z,5.30
2022-07-29T09:28:20.739Z,5.88
2022-07-29T09:31:01.513Z,5.63
2022-07-29T09:33:42.961Z,5.72
2022-07-29T09:36:14.497Z,5.80
2022-07-29T09:38:45.843Z,5.40
2022-07-29T09:41:17.290Z,5.30
2022-07-29T09:44:00.516Z,5.13
2022-07-29T09:46:32.081Z,5.22
2022-07-29T09:49:11.379Z,5.53
2022-07-29T09:51:43.780Z,5.18
2022-07-29T09:54:29.152Z,5.30
2022-07-29T09:57:00.570Z,5.22
2022-07-29T09:59:32.008Z,5.03
2022-07-29T10:04:45.107Z,5.40
2022-07-29T10:07:16.478Z,4.97
2022-07-29T10:09:58.942Z,4.88
2022-07-29T10:12:30.526Z,5.72
2022-07-29T10:15:04.612Z,5.22
2022-07-29T10:17:36.115Z,5.57
2022-07-29T10:20:16.378Z,5.03
2022-07-29T10:22:53.756Z,4.90
2022-07-29T10:25:29.186Z,7.78
2022-07-29T10:28:00.823Z,11.93
2022-07-29T10:30:32.317Z,14.88
2022-07-29T10:36:11.201Z,12.68
2022-07-29T10:38:56.798Z,51.90
2022-07-29T10:42:00.407Z,228.10
2022-07-29T10:44:32.678Z,644.92
2022-07-29T10:47:04.814Z,342.23
2022-07-29T10:52:11.828Z,160.77
2022-07-29T10:54:50.756Z,115.00
2022-07-29T10:57:53.511Z,92.47
2022-07-29T11:00:32.148Z,79.28
2022-07-29T11:03:04.684Z,69.60
2022-07-29T11:06:02.037Z,66.72
2022-07-29T11:08:40.397Z,64.22
2022-07-29T11:11:29.685Z,64.93
2022-07-29T11:14:01.395Z,59.97
2022-07-29T11:17:05.992Z,57.70
2022-07-29T11:19:40.116Z,61.60
2022-07-29T11:22:16.618Z,64.72
2022-07-29T11:25:08.030Z,60.53
2022-07-29T11:27:41.924Z,52.75
2022-07-29T11:30:14.637Z,49.08
2022-07-29T11:32:48.584Z,43.78
2022-07-29T11:35:38.525Z,36.78
2022-07-29T11:38:28.874Z,35.53
2022-07-29T11:41:29.411Z,32.55
2022-07-29T11:44:03.573Z,30.90
2022-07-29T11:46:54.280Z,32.25
2022-07-29T11:49:32.073Z,25.98
2022-07-29T11:52:05.567Z,27.13
2022-07-29T11:54:51.913Z,24.77
2022-07-29T11:57:37.204Z,24.70
2022-07-29T12:00:18.576Z,22.48
2022-07-29T12:02:50.428Z,19.38
2022-07-29T12:05:36.895Z,17.33
2022-07-29T12:08:17.028Z,15.02
2022-07-29T12:10:49.708Z,14.10
2022-07-29T12:13:37.108Z,12.82
2022-07-29T12:16:09.311Z,12.25
2022-07-29T12:18:59.250Z,11.73
2022-07-29T12:21:31.305Z,11.85
2022-07-29T12:24:09.405Z,12.55
2022-07-29T12:26:55.994Z,10.90
2022-07-29T12:29:34.685Z,9.65
2022-07-29T12:32:14.405Z,7.93
2022-07-29T12:34:51.195Z,7.70
2022-07-29T12:40:15.454Z,6.40
2022-07-29T12:43:13.417Z,5.60
2022-07-29T12:45:56.744Z,5.93
2022-07-29T12:48:42.907Z,5.30
2022-07-29T12:51:16.733Z,5.78
2022-07-29T12:54:18.551Z,5.65
2022-07-29T12:57:01.002Z,5.60
2022-07-29T12:59:32.881Z,5.38
2022-07-29T13:02:05.708Z,5.35
2022-07-29T13:04:39.972Z,5.25
2022-07-29T13:07:11.579Z,4.68
2022-07-29T13:09:50.982Z,5.65
2022-07-29T13:12:23.308Z,4.55
2022-07-29T13:14:54.886Z,4.85
2022-07-29T13:17:27.245Z,4.93
2022-07-29T13:20:14.900Z,4.57
2022-07-29T13:22:51.296Z,4.90
2022-07-29T13:25:34.220Z,4.43
2022-07-29T13:28:05.774Z,4.32
2022-07-29T13:30:46.126Z,5.07
2022-07-29T13:33:17.944Z,4.25
2022-07-29T13:35:50.236Z,4.65
2022-07-29T13:38:21.696Z,4.20
2022-07-29T13:41:03.570Z,4.35
2022-07-29T13:43:35.024Z,4.78
2022-07-29T13:46:06.915Z,5.22
2022-07-29T13:48:38.716Z,5.30
2022-07-29T13:51:11.171Z,5.03
2022-07-29T13:53:42.662Z,5.72
2022-07-29T13:56:14.093Z,5.75
2022-07-29T13:58:45.624Z,6.20
2022-07-29T14:01:17.820Z,6.05
2022-07-29T14:03:49.419Z,5.32
2022-07-29T14:06:22.297Z,5.30
2022-07-29T14:08:53.748Z,5.55
2022-07-29T14:11:25.397Z,5.90
2022-07-29T14:13:57.039Z,5.60
2022-07-29T14:16:28.781Z,5.45
2022-07-29T14:21:31.317Z,5.55
2022-07-29T14:24:17.850Z,5.80
2022-07-29T14:26:53.259Z,5.25
2022-07-29T14:29:24.850Z,4.90
2022-07-29T14:32:11.580Z,4.97
2022-07-29T14:34:43.360Z,5.30
2022-07-29T14:39:47.601Z,4.90
2022-07-29T14:44:51.777Z,4.68
2022-07-29T14:47:24.225Z,4.47
2022-07-29T14:49:55.678Z,5.15
2022-07-29T14:52:27.093Z,5.00
2022-07-29T14:54:58.554Z,4.18
2022-07-29T14:57:30.035Z,4.40
2022-07-29T15:00:01.584Z,4.63
2022-07-29T15:02:59.389Z,4.63
2022-07-29T15:05:24.324Z,4.25
2022-07-29T15:07:56.923Z,4.00
2022-07-29T15:10:31.513Z,3.72
2022-07-29T15:13:02.888Z,4.38
2022-07-29T15:15:34.313Z,4.30
2022-07-29T15:18:06.220Z,3.85
2022-07-29T15:23:11.936Z,4.07
2022-07-29T15:25:43.349Z,4.18
2022-07-29T15:28:14.771Z,3.30
2022-07-29T15:30:46.150Z,3.20
2022-07-29T15:33:17.478Z,3.53
2022-07-29T15:35:49.322Z,3.95
2022-07-29T15:38:20.997Z,4.03
2022-07-29T15:41:00.675Z,4.22
2022-07-29T15:43:32.056Z,4.28
2022-07-29T15:46:22.071Z,4.13
2022-07-29T15:48:53.518Z,4.25
2022-07-29T15:51:25.052Z,4.40
2022-07-29T15:53:57.100Z,4.53
2022-07-29T15:56:29.225Z,3.83
2022-07-29T15:59:01.446Z,3.75
2022-07-29T16:04:04.301Z,3.60
2022-07-29T16:09:07.173Z,3.80
2022-07-29T16:11:38.733Z,4.20
2022-07-29T16:14:11.007Z,4.47
2022-07-29T16:16:43.431Z,4.18
2022-07-29T16:21:45.664Z,3.85
2022-07-29T16:24:17.118Z,4.37
2022-07-29T16:26:48.463Z,3.97
2022-07-29T16:29:20.761Z,3.80
2022-07-29T16:31:52.444Z,3.80
2022-07-29T16:34:23.783Z,3.67
2022-07-29T16:36:55.080Z,3.70
2022-07-29T16:39:26.625Z,3.60
2022-07-29T16:44:32.811Z,3.60
2022-07-29T16:47:04.246Z,3.90
2022-07-29T16:49:35.698Z,3.65
2022-07-29T16:52:07.707Z,3.90
2022-07-29T16:57:11.121Z,3.85
2022-07-29T16:59:43.308Z,4.07
2022-07-29T17:02:15.306Z,3.85
2022-07-29T17:04:46.767Z,4.05
2022-07-29T17:07:18.305Z,3.95
2022-07-29T17:09:53.832Z,3.77
2022-07-29T17:12:27.234Z,3.95
2022-07-29T17:14:58.614Z,3.95
2022-07-29T17:17:39.565Z,4.40
2022-07-29T17:20:21.517Z,3.58
2022-07-29T17:22:52.787Z,4.55
2022-07-29T17:25:24.693Z,3.90
2022-07-29T17:28:00.769Z,4.53
2022-07-29T17:30:32.691Z,4.18
2022-07-29T17:33:04.152Z,4.68
2022-07-29T17:35:53.925Z,4.15
2022-07-29T17:38:25.157Z,4.95
2022-07-29T17:40:56.606Z,4.40
2022-07-29T17:43:27.891Z,5.60
2022-07-29T17:45:59.637Z,4.70
2022-07-29T17:48:31.200Z,4.32
2022-07-29T17:51:02.578Z,4.18
2022-07-29T17:53:34.012Z,3.85
2022-07-29T17:56:06.365Z,4.35
2022-07-29T18:01:09.991Z,4.55
2022-07-29T18:03:41.851Z,4.75
2022-07-29T18:06:14.123Z,4.35
2022-07-29T18:08:48.876Z,4.35
2022-07-29T18:11:20.246Z,4.50
2022-07-29T18:13:51.805Z,4.60
2022-07-29T18:18:54.341Z,4.78
2022-07-29T18:21:43.508Z,4.68
2022-07-29T18:24:17.603Z,4.37
2022-07-29T18:26:48.993Z,4.80
2022-07-29T18:29:20.392Z,4.43
2022-07-29T18:31:51.866Z,5.00
2022-07-29T18:34:23.532Z,5.20
2022-07-29T18:36:55.101Z,4.65
2022-07-29T18:39:26.639Z,4.55
2022-07-29T18:41:58.585Z,5.63
2022-07-29T18:44:29.952Z,5.13
2022-07-29T18:47:01.855Z,5.10
2022-07-29T18:49:33.688Z,5.07
2022-07-29T18:52:05.199Z,5.10
2022-07-29T18:54:36.521Z,5.25
2022-07-29T18:57:54.671Z,4.67
2022-07-29T18:59:59.709Z,5.10
2022-07-29T19:02:31.205Z,4.67
2022-07-29T19:05:02.859Z,5.00
2022-07-29T19:07:34.593Z,5.20
2022-07-29T19:10:07.462Z,5.50
2022-07-29T19:12:39.294Z,4.95
2022-07-29T19:15:12.029Z,5.90
2022-07-29T19:17:43.296Z,5.30
2022-07-29T19:20:14.872Z,4.83
2022-07-29T19:22:46.475Z,5.35
2022-07-29T19:25:17.887Z,5.45
2022-07-29T19:27:49.392Z,5.25
2022-07-29T19:30:20.822Z,5.13
2022-07-29T19:32:52.345Z,5.78
2022-07-29T19:35:29.475Z,4.93
2022-07-29T19:38:03.268Z,5.07
2022-07-29T19:40:34.608Z,4.72
2022-07-29T19:43:50.562Z,5.13
2022-07-29T19:45:57.414Z,5.30
2022-07-29T19:48:28.775Z,5.07
2022-07-29T19:51:00.179Z,5.03
2022-07-29T19:53:31.648Z,4.63
2022-07-29T19:56:03.118Z,4.80
2022-07-29T19:58:34.655Z,4.72
2022-07-29T20:01:10.318Z,5.37
2022-07-29T20:03:42.221Z,5.47
2022-07-29T20:06:14.080Z,5.07
2022-07-29T20:08:46.592Z,5.25
2022-07-29T20:11:18.254Z,5.50
2022-07-29T20:13:49.508Z,5.10
2022-07-29T20:16:20.759Z,4.72
2022-07-29T20:18:51.926Z,5.97
2022-07-29T20:21:23.507Z,5.32
2022-07-29T20:23:58.144Z,5.47
2022-07-29T20:26:29.402Z,5.70
2022-07-29T20:29:00.755Z,4.40
2022-07-29T20:31:33.401Z,5.10
2022-07-29T20:34:04.730Z,5.20
2022-07-29T20:36:36.901Z,6.28
2022-07-29T20:39:09.037Z,6.82
2022-07-29T20:41:40.634Z,6.82
2022-07-29T20:46:43.191Z,6.38
2022-07-29T20:49:14.413Z,5.70
2022-07-29T20:51:45.722Z,6.23
2022-07-29T20:54:17.031Z,6.30
2022-07-29T20:56:48.096Z,6.10
2022-07-29T20:59:19.801Z,5.95
2022-07-29T21:01:51.056Z,5.55
2022-07-29T21:04:22.706Z,5.40
2022-07-29T21:07:02.175Z,5.85
2022-07-29T21:09:33.629Z,5.20
2022-07-29T21:12:05.808Z,5.53
2022-07-29T21:14:37.341Z,5.22
2022-07-29T21:17:09.546Z,5.53
2022-07-29T21:22:11.761Z,5.30
2022-07-29T21:24:43.211Z,5.13
2022-07-29T21:27:32.552Z,5.05
2022-07-29T21:30:03.946Z,5.35
2022-07-29T21:32:35.442Z,5.23
2022-07-29T21:35:08.440Z,5.47
2022-07-29T21:37:53.622Z,5.38
2022-07-29T21:40:25.064Z,5.27
2022-07-29T21:42:57.013Z,5.60
2022-07-29T21:45:28.328Z,5.03
2022-07-29T21:48:00.051Z,5.20
2022-07-29T21:50:31.400Z,5.47
2022-07-29T21:53:03.466Z,5.03
2022-07-29T21:55:35.763Z,4.95
2022-07-29T21:58:07.586Z,5.13
2022-07-29T22:00:39.646Z,4.88
2022-07-29T22:03:11.936Z,4.88
2022-07-29T22:05:43.432Z,5.30
2022-07-29T22:08:14.956Z,5.40
2022-07-29T22:10:46.240Z,5.03
2022-07-29T22:13:17.535Z,5.17
2022-07-29T22:15:48.915Z,5.47
2022-07-29T22:18:20.718Z,5.10
2022-07-29T22:20:52.784Z,4.65
2022-07-29T22:23:24.225Z,5.15
2022-07-29T22:25:55.505Z,4.77
2022-07-29T22:28:26.815Z,4.73
2022-07-29T22:30:58.763Z,5.80
2022-07-29T22:33:30.418Z,5.18
2022-07-29T22:36:01.849Z,5.15
2022-07-29T22:38:33.299Z,5.32
2022-07-29T22:41:04.713Z,5.10
2022-07-29T22:43:36.146Z,5.38
2022-07-29T22:46:10.092Z,5.63
2022-07-29T22:48:42.254Z,5.97
2022-07-29T22:51:13.588Z,6.53
2022-07-29T22:53:44.930Z,5.80
2022-07-29T22:56:16.402Z,6.43
2022-07-29T22:58:47.810Z,6.93
2022-07-29T23:01:37.745Z,6.32
2022-07-29T23:04:09.569Z,6.90
2022-07-29T23:06:40.864Z,6.87
2022-07-29T23:09:12.775Z,6.68
2022-07-29T23:11:44.223Z,6.03
2022-07-29T23:14:15.841Z,7.25
2022-07-29T23:16:47.860Z,6.60
2022-07-29T23:19:19.514Z,6.88
2022-07-29T23:21:50.973Z,6.43
2022-07-29T23:24:22.314Z,6.93
2022-07-29T23:26:54.166Z,6.70
2022-07-29T23:29:25.491Z,7.10
2022-07-29T23:31:57.177Z,7.20
2022-07-29T23:34:28.734Z,7.20
2022-07-29T23:37:00.627Z,7.00
2022-07-29T23:39:32.065Z,7.45
2022-07-29T23:42:04.218Z,6.90
2022-07-29T23:47:07.014Z,6.70
2022-07-29T23:49:38.443Z,6.50
2022-07-29T23:52:10.059Z,6.82
2022-07-29T23:54:41.410Z,6.43
2022-07-29T23:57:12.635Z,6.47
2022-07-29T23:59:44.140Z,6.40
